.
WxDataArchive / Data Records for 2010-02-24
2010-02-23 February 2010 2010-02-25

Data Records for Wednesday, 24 February 2010

Time	Temp	Chill	HIndex	Humid	Dewpt	 Wind 	HiWind	WindDir	Rain 	Barom 
-----	----	-----	------	-----	-----	------	------	-------	-----	----- 
00:00	29.0	29.0	29.0	89	26.2	1	3	248	0.00	29.930 
00:05	29.0	29.0	29.0	89	26.2	1	3	248	0.00	29.930 
00:10	29.0	29.0	29.0	89	26.2	0	2	248	0.00	29.930 
00:15	29.0	29.0	29.0	89	26.2	0	1	248	0.00	29.929 
00:20	29.0	29.0	29.0	89	26.2	1	3	248	0.00	29.929 
00:25	29.0	29.0	29.0	89	26.2	0	2	248	0.00	29.929 
00:30	29.0	29.0	29.0	89	26.2	0	3	248	0.00	29.930 
00:35	29.0	29.0	29.0	88	25.9	0	3	248	0.00	29.930 
00:40	29.0	29.0	29.0	88	25.9	0	2	248	0.00	29.930 
00:45	29.0	29.0	29.0	88	25.9	1	4	248	0.00	29.930 
00:50	29.0	29.0	29.0	87	25.6	1	3	248	0.00	29.930 
00:55	29.0	29.0	29.0	87	25.6	1	3	270	0.00	29.930 
01:00	29.0	29.0	29.0	86	25.3	1	3	248	0.00	29.932 
01:05	28.8	28.8	28.8	85	24.9	1	3	248	0.00	29.932 
01:10	28.8	28.8	28.8	84	24.6	1	4	270	0.00	29.932 
01:15	28.8	28.8	28.8	84	24.6	1	5	248	0.00	29.927 
01:20	28.8	28.8	28.8	83	24.3	1	4	248	0.00	29.927 
01:25	28.7	28.7	28.7	83	24.2	1	5	248	0.00	29.927 
01:30	28.5	28.5	28.5	82	23.7	1	4	248	0.00	29.926 
01:35	28.4	28.4	28.4	82	23.6	1	4	248	0.00	29.926 
01:40	28.4	28.4	28.4	82	23.6	1	3	270	0.00	29.926 
01:45	28.2	28.2	28.2	82	23.4	1	3	248	0.00	29.928 
01:50	28.1	28.1	28.1	82	23.3	0	2	248	0.00	29.928 
01:55	27.9	27.9	27.9	82	23.1	1	3	248	0.00	29.928 
02:00	27.9	27.9	27.9	82	23.1	1	3	248	0.00	29.924 
02:05	27.8	27.8	27.8	82	23.0	1	3	248	0.00	29.924 
02:10	27.8	27.8	27.8	82	23.0	0	2	248	0.00	29.924 
02:15	27.6	27.6	27.6	82	22.8	2	4	248	0.00	29.919 
02:20	27.6	27.6	27.6	82	22.8	1	4	248	0.00	29.919 
02:25	27.6	27.6	27.6	82	22.8	1	3	248	0.00	29.919 
02:30	27.6	27.6	27.6	81	22.5	1	3	248	0.00	29.917 
02:35	27.5	27.5	27.5	81	22.4	1	4	248	0.00	29.917 
02:40	27.5	27.5	27.5	80	22.2	1	3	248	0.00	29.917 
02:45	27.3	27.3	27.3	79	21.7	2	5	248	0.00	29.914 
02:50	27.3	27.3	27.3	79	21.7	1	3	248	0.00	29.914 
02:55	27.2	27.2	27.2	78	21.3	1	4	248	0.00	29.914 
03:00	27.2	27.2	27.2	77	21.0	1	5	248	0.00	29.908 
03:05	27.0	27.0	27.0	77	20.8	0	2	248	0.00	29.908 
03:10	26.9	26.9	26.9	77	20.7	1	3	248	0.00	29.908 
03:15	26.7	26.7	26.7	77	20.5	0	2	248	0.00	29.906 
03:20	26.7	26.7	26.7	77	20.5	1	2	248	0.00	29.906 
03:25	26.6	26.6	26.6	77	20.4	1	3	270	0.00	29.906 
03:30	26.6	26.6	26.6	77	20.4	0	2	270	0.00	29.903 
03:35	26.6	26.6	26.6	77	20.4	0	2	270	0.00	29.903 
03:40	26.4	26.4	26.4	77	20.2	0	1	270	0.00	29.903 
03:45	26.3	26.3	26.3	77	20.1	0	2	270	0.00	29.902 
03:50	26.3	26.3	26.3	77	20.1	0	2	270	0.00	29.902 
03:55	26.1	26.1	26.1	77	19.9	0	2	270	0.00	29.902 
04:00	26.1	26.1	26.1	77	19.9	0	2	270	0.00	29.902 
04:05	26.1	26.1	26.1	77	19.9	0	1	270	0.00	29.902 
04:10	26.0	26.0	26.0	77	19.8	1	3	270	0.00	29.902 
04:15	26.0	26.0	26.0	76	19.5	1	3	248	0.00	29.903 
04:20	26.0	26.0	26.0	76	19.5	0	2	248	0.00	29.903 
04:25	25.8	25.8	25.8	76	19.3	0	2	248	0.00	29.903 
04:30	25.7	25.7	25.7	76	19.2	0	2	248	0.00	29.904 
04:35	25.7	25.7	25.7	76	19.2	0	2	248	0.00	29.904 
04:40	25.7	25.7	25.7	76	19.2	0	4	248	0.00	29.904 
04:45	25.6	25.6	25.6	76	19.1	0	2	248	0.00	29.906 
04:50	25.6	25.6	25.6	77	19.4	0	2	248	0.00	29.906 
04:55	25.6	25.6	25.6	77	19.4	0	2	248	0.00	29.906 
05:00	25.6	25.6	25.6	77	19.4	0	1	248	0.00	29.914 
05:05	25.4	25.4	25.4	77	19.2	0	1	248	0.00	29.914 
05:10	25.4	25.4	25.4	77	19.2	0	2	248	0.00	29.914 
05:15	25.4	25.4	25.4	77	19.2	1	2	248	0.00	29.918 
05:20	25.4	25.4	25.4	77	19.2	0	2	248	0.00	29.918 
05:25	25.3	25.3	25.3	77	19.1	0	0	---	0.00	29.918 
05:30	25.3	25.3	25.3	77	19.1	0	1	248	0.00	29.918 
05:35	25.1	25.1	25.1	77	18.9	0	0	---	0.00	29.918 
05:40	25.1	25.1	25.1	77	18.9	0	0	---	0.00	29.918 
05:45	25.1	25.1	25.1	77	18.9	0	1	248	0.00	29.918 
05:50	25.0	25.0	25.0	77	18.8	0	0	---	0.00	29.918 
05:55	25.0	25.0	25.0	78	19.1	0	0	---	0.00	29.918 
06:00	25.0	25.0	25.0	78	19.1	0	1	248	0.00	29.919 
06:05	25.0	25.0	25.0	78	19.1	0	1	248	0.00	29.919 
06:10	24.8	24.8	24.8	78	18.9	0	0	---	0.00	29.919 
06:15	24.8	24.8	24.8	78	18.9	0	0	---	0.00	29.918 
06:20	24.8	24.8	24.8	78	18.9	0	0	---	0.00	29.918 
06:25	24.7	24.7	24.7	79	19.1	0	0	---	0.00	29.918 
06:30	24.7	24.7	24.7	79	19.1	0	1	248	0.00	29.920 
06:35	24.5	24.5	24.5	79	18.9	0	1	248	0.00	29.920 
06:40	24.5	24.5	24.5	79	18.9	0	0	---	0.00	29.920 
06:45	24.5	24.5	24.5	79	18.9	0	0	---	0.00	29.920 
06:50	24.4	24.4	24.4	79	18.8	0	0	---	0.00	29.920 
06:55	24.4	24.4	24.4	79	18.8	0	0	---	0.00	29.920 
07:00	24.2	24.2	24.2	79	18.6	0	0	---	0.00	29.923 
07:05	24.1	24.1	24.1	79	18.5	0	1	248	0.00	29.923 
07:10	23.9	23.9	23.9	79	18.4	0	0	---	0.00	29.923 
07:15	23.9	23.9	23.9	79	18.4	0	0	---	0.00	29.926 
07:20	23.9	23.9	23.9	80	18.6	0	0	---	0.00	29.926 
07:25	23.9	23.9	23.9	80	18.6	0	0	---	0.00	29.926 
07:30	23.9	23.9	23.9	80	18.6	0	0	---	0.00	29.927 
07:35	23.9	23.9	23.9	81	18.9	0	0	---	0.00	29.927 
07:40	24.1	24.1	24.1	81	19.1	0	0	---	0.00	29.927 
07:45	24.2	24.2	24.2	81	19.2	0	0	---	0.00	29.930 
07:50	24.4	24.4	24.4	81	19.4	0	0	---	0.00	29.930 
07:55	24.5	24.5	24.5	81	19.5	0	0	---	0.00	29.930 
08:00	24.7	24.7	24.7	81	19.7	0	0	---	0.00	29.935 
08:05	24.8	24.8	24.8	81	19.8	0	0	---	0.00	29.935 
08:10	24.8	24.8	24.8	81	19.8	0	0	---	0.00	29.935 
08:15	25.1	25.1	25.1	81	20.1	0	0	---	0.00	29.936 
08:20	25.3	25.3	25.3	80	20.0	0	0	---	0.00	29.936 
08:25	25.4	25.4	25.4	80	20.1	0	0	---	0.00	29.936 
08:30	25.6	25.6	25.6	79	20.0	0	0	---	0.00	29.937 
08:35	25.7	25.7	25.7	79	20.1	0	0	---	0.00	29.937 
08:40	26.0	26.0	26.0	78	20.1	0	1	248	0.00	29.937 
08:45	26.1	26.1	26.1	77	19.9	0	1	248	0.00	29.940 
08:50	26.3	26.3	26.3	77	20.1	0	2	248	0.00	29.940 
08:55	26.4	26.4	26.4	77	20.2	0	1	248	0.00	29.940 
09:00	26.6	26.6	26.6	76	20.1	0	1	248	0.00	29.937 
09:05	26.7	26.7	26.7	76	20.2	0	1	248	0.00	29.937 
09:10	26.7	26.7	26.7	74	19.5	0	2	248	0.00	29.937 
09:15	26.9	26.9	26.9	73	19.4	0	2	68	0.00	29.941 
09:20	27.0	27.0	27.0	72	19.2	0	2	0	0.00	29.941 
09:25	27.2	27.2	27.2	71	19.1	0	2	270	0.00	29.941 
09:30	27.3	27.3	27.3	71	19.2	1	4	248	0.00	29.941 
09:35	27.5	27.5	27.5	70	19.0	0	2	248	0.00	29.941 
09:40	27.6	27.6	27.6	70	19.1	0	2	248	0.00	29.941 
09:45	27.6	27.6	27.6	70	19.1	0	2	248	0.00	29.941 
09:50	27.9	27.9	27.9	70	19.4	0	1	248	0.00	29.941 
09:55	28.1	28.1	28.1	71	19.9	0	1	248	0.00	29.941 
10:00	28.4	28.4	28.4	71	20.2	0	3	248	0.00	29.943 
10:05	28.4	28.4	28.4	69	19.5	0	1	248	0.00	29.943 
10:10	28.2	28.2	28.2	70	19.7	0	2	248	0.00	29.943 
10:15	28.2	28.2	28.2	70	19.7	1	3	248	0.00	29.945 
10:20	28.1	28.1	28.1	71	19.9	0	1	248	0.00	29.945 
10:25	28.1	28.1	28.1	72	20.3	0	1	248	0.00	29.945 
10:30	28.2	28.2	28.2	74	21.0	0	2	248	0.00	29.946 
10:35	28.2	28.2	28.2	74	21.0	0	2	248	0.00	29.946 
10:40	27.9	27.9	27.9	74	20.7	1	2	338	0.00	29.946 
10:45	27.8	27.8	27.8	75	20.9	0	2	338	0.00	29.949 
10:50	27.9	27.9	27.9	76	21.3	0	2	338	0.00	29.949 
10:55	28.2	28.2	28.2	77	21.9	0	1	338	0.00	29.949 
11:00	28.4	28.4	28.4	77	22.1	0	2	338	0.00	29.949 
11:05	28.2	28.2	28.2	78	22.2	0	2	338	0.00	29.949 
11:10	28.2	28.2	28.2	79	22.5	0	2	338	0.00	29.949 
11:15	28.1	28.1	28.1	79	22.4	0	1	338	0.01	29.951 
11:20	28.1	28.1	28.1	79	22.4	0	2	338	0.00	29.951 
11:25	28.2	28.2	28.2	79	22.5	1	2	338	0.00	29.951 
11:30	28.2	28.2	28.2	80	22.8	1	3	338	0.00	29.951 
11:35	28.4	28.4	28.4	81	23.3	1	4	270	0.00	29.951 
11:40	28.4	28.4	28.4	80	23.0	1	3	292	0.00	29.951 
11:45	28.2	28.2	28.2	80	22.8	1	2	292	0.00	29.951 
11:50	28.1	28.1	28.1	80	22.7	1	2	315	0.00	29.951 
11:55	28.1	28.1	28.1	80	22.7	1	3	315	0.00	29.951 
12:00	28.4	28.4	28.4	80	23.0	1	3	248	0.00	29.951 
12:05	28.4	28.4	28.4	78	22.4	2	4	248	0.00	29.951 
12:10	28.2	28.2	28.2	78	22.2	2	5	248	0.00	29.951 
12:15	28.2	28.2	28.2	77	21.9	1	3	248	0.00	29.949 
12:20	28.2	28.2	28.2	76	21.6	2	4	338	0.00	29.949 
12:25	28.4	28.4	28.4	76	21.8	1	3	270	0.00	29.949 
12:30	28.7	28.7	28.7	75	21.8	1	3	248	0.00	29.946 
12:35	28.7	28.7	28.7	75	21.8	1	3	315	0.00	29.946 
12:40	29.0	29.0	29.0	74	21.8	1	3	270	0.00	29.946 
12:45	29.1	29.1	29.1	73	21.5	1	3	270	0.00	29.941 
12:50	29.0	29.0	29.0	72	21.1	1	3	338	0.00	29.941 
12:55	28.5	28.5	28.5	73	21.0	1	2	338	0.00	29.941 
13:00	28.4	28.4	28.4	73	20.9	1	3	338	0.00	29.937 
13:05	28.5	28.5	28.5	73	21.0	1	3	248	0.00	29.937 
13:10	28.8	28.8	28.8	73	21.3	1	4	270	0.00	29.937 
13:15	29.3	29.3	29.3	72	21.4	1	3	270	0.00	29.935 
13:20	29.4	29.4	29.4	70	20.8	1	3	22	0.00	29.935 
13:25	29.7	29.7	29.7	70	21.1	1	5	270	0.00	29.935 
13:30	29.4	29.4	29.4	71	21.2	1	4	292	0.01	29.934 
13:35	29.3	29.3	29.3	70	20.8	1	2	315	0.00	29.934 
13:40	29.0	29.0	29.0	71	20.8	1	2	315	0.00	29.934 
13:45	28.7	28.7	28.7	72	20.8	1	3	315	0.00	29.933 
13:50	28.5	28.5	28.5	73	21.0	1	3	315	0.00	29.933 
13:55	28.7	28.7	28.7	73	21.2	1	4	248	0.00	29.933 
14:00	28.5	28.5	28.5	73	21.0	1	3	270	0.00	29.930 
14:05	28.5	28.5	28.5	73	21.0	2	6	248	0.00	29.930 
14:10	28.5	28.5	28.5	73	21.0	1	3	248	0.00	29.930 
14:15	28.7	28.7	28.7	73	21.2	1	3	248	0.00	29.924 
14:20	28.7	28.7	28.7	72	20.8	1	2	248	0.00	29.924 
14:25	28.7	28.7	28.7	71	20.5	1	3	248	0.00	29.924 
14:30	28.5	28.5	28.5	70	20.0	1	3	270	0.00	29.922 
14:35	28.5	28.5	28.5	71	20.3	1	3	270	0.00	29.922 
14:40	28.5	28.5	28.5	71	20.3	1	3	248	0.00	29.922 
14:45	28.4	28.4	28.4	70	19.9	1	3	248	0.00	29.923 
14:50	28.4	28.4	28.4	70	19.9	2	4	248	0.00	29.923 
14:55	28.4	28.4	28.4	69	19.5	2	5	248	0.00	29.923 
15:00	28.7	28.7	28.7	70	20.2	1	4	248	0.00	29.923 
15:05	28.7	28.7	28.7	69	19.8	1	3	270	0.00	29.923 
15:10	28.7	28.7	28.7	69	19.8	1	3	248	0.00	29.923 
15:15	28.4	28.4	28.4	68	19.2	1	3	248	0.00	29.928 
15:20	28.4	28.4	28.4	69	19.5	1	3	225	0.00	29.928 
15:25	28.2	28.2	28.2	69	19.4	1	2	338	0.00	29.928 
15:30	28.2	28.2	28.2	69	19.4	1	2	248	0.00	29.929 
15:35	28.2	28.2	28.2	69	19.4	1	3	248	0.00	29.929 
15:40	27.9	27.9	27.9	68	18.7	1	3	248	0.00	29.929 
15:45	27.8	27.8	27.8	69	19.0	1	3	248	0.00	29.933 
15:50	27.5	27.5	27.5	70	19.0	1	3	292	0.00	29.933 
15:55	27.6	27.6	27.6	71	19.4	1	3	270	0.00	29.933 
16:00	27.6	27.6	27.6	70	19.1	1	3	248	0.00	29.937 
16:05	27.5	27.5	27.5	71	19.4	2	3	315	0.00	29.937 
16:10	27.3	27.3	27.3	71	19.2	2	3	270	0.00	29.937 
16:15	27.2	27.2	27.2	70	18.7	1	3	270	0.00	29.940 
16:20	27.3	27.3	27.3	71	19.2	1	4	248	0.00	29.940 
16:25	27.3	27.3	27.3	70	18.8	1	3	315	0.00	29.940 
16:30	27.5	27.5	27.5	71	19.4	1	4	315	0.00	29.941 
16:35	27.5	27.5	27.5	69	18.7	1	3	292	0.00	29.941 
16:40	27.5	27.5	27.5	70	19.0	1	3	292	0.00	29.941 
16:45	27.3	27.3	27.3	70	18.8	1	2	270	0.00	29.941 
16:50	27.2	27.2	27.2	71	19.1	1	2	270	0.00	29.941 
16:55	27.0	27.0	27.0	71	18.9	0	2	270	0.00	29.941 
17:00	26.7	26.7	26.7	70	18.3	0	2	315	0.00	29.941 
17:05	26.4	26.4	26.4	69	17.6	0	2	315	0.00	29.941 
17:10	26.4	26.4	26.4	69	17.6	1	2	225	0.00	29.941 
17:15	26.4	26.4	26.4	69	17.6	1	1	225	0.00	29.945 
17:20	26.4	26.4	26.4	70	18.0	0	2	225	0.00	29.945 
17:25	26.4	26.4	26.4	70	18.0	1	3	248	0.00	29.945 
17:30	26.4	26.4	26.4	69	17.6	0	2	248	0.00	29.947 
17:35	26.4	26.4	26.4	69	17.6	1	2	248	0.00	29.947 
17:40	26.4	26.4	26.4	70	18.0	1	3	248	0.00	29.947 
17:45	26.4	26.4	26.4	72	18.6	0	2	248	0.00	29.946 
17:50	26.3	26.3	26.3	73	18.8	1	3	248	0.00	29.946 
17:55	26.1	26.1	26.1	73	18.7	0	2	248	0.00	29.946 
18:00	26.0	26.0	26.0	74	18.9	0	1	248	0.00	29.951 
18:05	26.0	26.0	26.0	74	18.9	0	2	248	0.00	29.951 
18:10	25.8	25.8	25.8	75	19.0	0	1	248	0.00	29.951 
18:15	25.8	25.8	25.8	75	19.0	1	3	248	0.00	29.955 
18:20	25.7	25.7	25.7	75	18.9	0	2	248	0.00	29.955 
18:25	25.6	25.6	25.6	74	18.5	1	3	248	0.00	29.955 
18:30	25.4	25.4	25.4	74	18.3	1	3	248	0.00	29.955 
18:35	25.3	25.3	25.3	74	18.2	0	2	338	0.00	29.955 
18:40	25.1	25.1	25.1	74	18.0	1	3	225	0.00	29.955 
18:45	25.1	25.1	25.1	74	18.0	1	2	225	0.00	29.956 
18:50	25.1	25.1	25.1	74	18.0	1	3	225	0.00	29.956 
18:55	25.1	25.1	25.1	74	18.0	0	2	225	0.00	29.956 
19:00	25.1	25.1	25.1	74	18.0	0	1	225	0.00	29.958 
19:05	25.1	25.1	25.1	74	18.0	0	1	225	0.00	29.958 
19:10	25.1	25.1	25.1	74	18.0	0	2	225	0.00	29.958 
19:15	25.1	25.1	25.1	74	18.0	0	2	225	0.00	29.958 
19:20	25.1	25.1	25.1	75	18.3	0	1	225	0.00	29.958 
19:25	25.1	25.1	25.1	74	18.0	1	3	248	0.00	29.958 
19:30	25.1	25.1	25.1	75	18.3	0	2	248	0.00	29.958 
19:35	25.0	25.0	25.0	74	17.9	0	2	248	0.00	29.958 
19:40	25.0	25.0	25.0	74	17.9	0	1	248	0.00	29.958 
19:45	24.8	24.8	24.8	74	17.7	0	1	248	0.00	29.958 
19:50	24.8	24.8	24.8	75	18.0	0	2	248	0.00	29.958 
19:55	24.7	24.7	24.7	75	17.9	0	1	248	0.00	29.958 
20:00	24.7	24.7	24.7	74	17.6	0	2	248	0.00	29.958 
20:05	24.5	24.5	24.5	74	17.4	1	3	248	0.00	29.958 
20:10	24.4	24.4	24.4	74	17.3	0	2	248	0.00	29.958 
20:15	24.2	24.2	24.2	74	17.1	1	2	248	0.00	29.960 
20:20	24.1	24.1	24.1	74	17.0	0	1	248	0.00	29.960 
20:25	23.9	23.9	23.9	75	17.2	0	1	248	0.00	29.960 
20:30	23.8	23.8	23.8	75	17.1	0	1	248	0.00	29.962 
20:35	23.5	23.5	23.5	75	16.8	0	1	248	0.00	29.962 
20:40	23.3	23.3	23.3	76	16.9	0	0	---	0.00	29.962 
20:45	23.2	23.2	23.2	76	16.8	0	0	---	0.00	29.963 
20:50	22.9	22.9	22.9	76	16.5	0	0	---	0.00	29.963 
20:55	22.7	22.7	22.7	77	16.6	0	0	---	0.00	29.963 
21:00	22.4	22.4	22.4	77	16.3	0	0	---	0.00	29.968 
21:05	22.2	22.2	22.2	77	16.1	0	1	248	0.00	29.968 
21:10	22.1	22.1	22.1	78	16.3	0	1	248	0.00	29.968 
21:15	21.9	21.9	21.9	78	16.1	0	0	---	0.00	29.971 
21:20	21.8	21.8	21.8	79	16.3	0	0	---	0.00	29.971 
21:25	21.6	21.6	21.6	79	16.1	0	0	---	0.00	29.971 
21:30	21.4	21.4	21.4	80	16.2	0	0	---	0.00	29.973 
21:35	21.3	21.3	21.3	80	16.1	0	0	---	0.00	29.973 
21:40	21.1	21.1	21.1	80	15.9	0	0	---	0.00	29.973 
21:45	21.0	21.0	21.0	81	16.1	0	0	---	0.00	29.972 
21:50	20.8	20.8	20.8	81	15.9	0	0	---	0.00	29.972 
21:55	20.8	20.8	20.8	81	15.9	0	1	248	0.00	29.972 
22:00	21.0	21.0	21.0	81	16.1	0	1	248	0.00	29.975 
22:05	21.0	21.0	21.0	81	16.1	0	0	---	0.00	29.975 
22:10	21.0	21.0	21.0	81	16.1	0	0	---	0.00	29.975 
22:15	21.0	21.0	21.0	81	16.1	0	1	248	0.00	29.976 
22:20	20.8	20.8	20.8	81	15.9	0	1	248	0.00	29.976 
22:25	20.8	20.8	20.8	81	15.9	0	0	---	0.00	29.976 
22:30	20.8	20.8	20.8	81	15.9	0	1	248	0.00	29.976 
22:35	20.6	20.6	20.6	81	15.7	0	0	---	0.00	29.976 
22:40	20.5	20.5	20.5	81	15.6	0	0	---	0.00	29.976 
22:45	20.3	20.3	20.3	81	15.4	0	0	---	0.00	29.976 
22:50	20.2	20.2	20.2	82	15.6	0	0	---	0.00	29.976 
22:55	20.0	20.0	20.0	82	15.4	0	0	---	0.00	29.976 
23:00	20.0	20.0	20.0	82	15.4	0	0	---	0.00	29.976 
23:05	19.9	19.9	19.9	82	15.3	0	0	---	0.00	29.976 
23:10	19.9	19.9	19.9	83	15.6	0	1	248	0.00	29.976 
23:15	19.9	19.9	19.9	83	15.6	0	1	248	0.00	29.974 
23:20	20.0	20.0	20.0	83	15.7	0	1	248	0.00	29.974 
23:25	19.9	19.9	19.9	83	15.6	0	1	248	0.00	29.974 
23:30	19.9	19.9	19.9	83	15.6	0	0	---	0.00	29.975 
23:35	19.9	19.9	19.9	83	15.6	0	0	---	0.00	29.975 
23:40	19.9	19.9	19.9	83	15.6	0	1	248	0.00	29.975 
23:45	20.0	20.0	20.0	83	15.7	0	1	248	0.00	29.975 
23:50	20.0	20.0	20.0	83	15.7	0	1	248	0.00	29.975 
23:55	20.2	20.2	20.2	83	15.9	0	1	248	0.00	29.975 

CoCoRaHS
IN-AL-39
A2 Web Hosting
Creative Commons License
GoDaddy
search engine by freefind advanced

loaded 2018-11-17 22:29:03 • last modified 2010-11-18 10:43:29
Privacy PolicyDisclaimer
• wx.awcolley.com is powered by PmWiki v.2002016 •
• all content (unless otherwise noted) © 2018 A W Colley